createdAt,value
2022-11-15T00:01:14.947Z,59.67
2022-11-15T00:04:00.159Z,62.58
2022-11-15T00:06:45.398Z,60.65
2022-11-15T00:09:30.829Z,66.60
2022-11-15T00:12:16.096Z,62.60
2022-11-15T00:15:01.557Z,67.03
2022-11-15T00:17:50.269Z,65.70
2022-11-15T00:20:35.394Z,75.85
2022-11-15T00:23:20.904Z,77.00
2022-11-15T00:26:06.880Z,71.75
2022-11-15T00:28:53.741Z,70.07
2022-11-15T00:31:38.817Z,73.75
2022-11-15T00:34:24.072Z,73.55
2022-11-15T00:37:09.572Z,76.22
2022-11-15T00:39:55.041Z,74.65
2022-11-15T00:42:40.730Z,78.70
2022-11-15T00:45:26.548Z,73.60
2022-11-15T00:48:11.860Z,73.22
2022-11-15T00:50:57.664Z,75.80
2022-11-15T00:53:42.699Z,72.22
2022-11-15T00:56:27.865Z,84.85
2022-11-15T00:59:13.364Z,79.07
2022-11-15T01:01:58.633Z,66.25
2022-11-15T01:04:44.176Z,68.28
2022-11-15T01:07:29.764Z,84.28
2022-11-15T01:10:15.136Z,68.63
2022-11-15T01:13:00.597Z,80.55
2022-11-15T01:15:45.992Z,82.90
2022-11-15T01:18:31.334Z,74.35
2022-11-15T01:21:19.992Z,73.55
2022-11-15T01:24:05.360Z,66.35
2022-11-15T01:26:50.586Z,81.25
2022-11-15T01:29:35.824Z,78.65
2022-11-15T01:32:21.234Z,82.57
2022-11-15T01:35:07.089Z,83.80
2022-11-15T01:37:52.391Z,84.28
2022-11-15T01:40:37.824Z,79.80
2022-11-15T01:43:33.433Z,81.65
2022-11-15T01:46:28.078Z,84.47
2022-11-15T01:49:17.861Z,81.03
2022-11-15T01:52:07.293Z,84.30
2022-11-15T01:55:01.932Z,72.65
2022-11-15T01:57:51.214Z,79.82
2022-11-15T02:00:36.624Z,87.70
2022-11-15T02:03:26.162Z,77.57
2022-11-15T02:06:11.689Z,82.90
2022-11-15T02:08:58.009Z,84.53
2022-11-15T02:11:44.788Z,83.75
2022-11-15T02:14:32.021Z,82.18
2022-11-15T02:20:38.646Z,81.38
2022-11-15T02:23:39.537Z,78.10
2022-11-15T02:27:06.048Z,76.65
2022-11-15T02:30:16.416Z,85.32
2022-11-15T02:33:20.139Z,89.10
2022-11-15T02:36:18.113Z,84.95
2022-11-15T02:41:58.905Z,79.93
2022-11-15T02:44:46.684Z,93.53
2022-11-15T02:47:36.718Z,75.60
2022-11-15T02:50:27.585Z,91.53
2022-11-15T02:53:12.572Z,84.10
2022-11-15T02:55:58.911Z,86.07
2022-11-15T02:58:52.429Z,79.35
2022-11-15T03:01:59.178Z,83.07
2022-11-15T03:04:58.393Z,83.13
2022-11-15T03:08:03.708Z,77.78
2022-11-15T03:11:12.435Z,89.45
2022-11-15T03:17:23.337Z,79.28
2022-11-15T03:20:11.105Z,75.07
2022-11-15T03:23:00.706Z,83.75
2022-11-15T03:25:49.533Z,76.18
2022-11-15T03:29:01.321Z,74.80
2022-11-15T03:31:53.233Z,78.82
2022-11-15T03:34:44.277Z,80.60
2022-11-15T03:37:35.645Z,82.35
2022-11-15T03:40:45.448Z,82.70
2022-11-15T03:43:53.943Z,67.68
2022-11-15T03:46:47.593Z,84.38
2022-11-15T03:49:35.422Z,76.53
2022-11-15T03:52:22.649Z,74.93
2022-11-15T06:47:19.450Z,41.90
2022-11-15T06:50:05.068Z,53.20
2022-11-15T06:52:50.474Z,57.53
2022-11-15T06:55:35.871Z,60.15
2022-11-15T06:58:22.292Z,66.40
2022-11-15T07:01:12.877Z,66.60
2022-11-15T07:03:58.733Z,62.72
2022-11-15T07:06:48.193Z,62.53
2022-11-15T07:09:33.736Z,62.55
2022-11-15T07:12:19.689Z,66.10
2022-11-15T07:15:05.805Z,60.47
2022-11-15T07:17:51.490Z,56.03
2022-11-15T07:20:36.937Z,49.97
2022-11-15T07:23:22.367Z,60.05
2022-11-15T07:26:08.839Z,56.08
2022-11-15T07:28:54.568Z,54.63
2022-11-15T07:31:40.129Z,54.67
2022-11-15T07:34:25.721Z,50.03
2022-11-15T07:37:11.712Z,40.95
2022-11-15T07:39:56.810Z,40.50
2022-11-15T07:43:02.770Z,42.90
2022-11-15T07:45:47.879Z,38.33
2022-11-15T07:48:43.536Z,41.90
2022-11-15T07:51:29.973Z,34.65
2022-11-15T07:54:15.237Z,28.75
2022-11-15T07:57:06.693Z,27.70
2022-11-15T07:59:52.624Z,33.92
2022-11-15T08:02:38.111Z,27.38
2022-11-15T08:05:23.646Z,28.08
2022-11-15T08:08:11.783Z,25.23
2022-11-15T08:10:59.316Z,18.65
2022-11-15T08:13:44.440Z,17.35
2022-11-15T08:16:29.996Z,17.67
2022-11-15T08:19:15.477Z,17.75
2022-11-15T08:22:01.814Z,18.40
2022-11-15T08:24:46.885Z,18.98
2022-11-15T08:27:32.464Z,21.75
2022-11-15T08:30:17.997Z,21.77
2022-11-15T08:33:03.823Z,23.33
2022-11-15T08:35:49.497Z,20.42
2022-11-15T08:38:35.058Z,22.10
2022-11-15T08:41:29.091Z,19.95
2022-11-15T08:44:14.445Z,21.45
2022-11-15T08:46:59.902Z,24.80
2022-11-15T08:49:45.422Z,23.02
2022-11-15T08:52:31.038Z,22.35
2022-11-15T08:55:17.655Z,24.15
2022-11-15T08:58:03.217Z,26.42
2022-11-15T09:00:48.832Z,22.38
2022-11-15T09:03:34.258Z,27.60
2022-11-15T09:06:19.765Z,23.92
2022-11-15T09:09:05.123Z,23.58
2022-11-15T09:11:51.630Z,16.75
2022-11-15T09:14:37.402Z,14.55
2022-11-15T09:17:24.936Z,14.82
2022-11-15T09:20:10.931Z,14.98
2022-11-15T09:22:59.548Z,14.90
2022-11-15T09:25:44.917Z,18.23
2022-11-15T09:28:31.468Z,17.58
2022-11-15T09:31:19.512Z,23.42
2022-11-15T09:34:07.824Z,26.58
2022-11-15T09:36:53.168Z,28.50
2022-11-15T09:39:38.681Z,22.08
2022-11-15T09:43:01.564Z,24.95
2022-11-15T09:46:11.802Z,23.60
2022-11-15T09:49:18.082Z,22.83
2022-11-15T09:52:14.485Z,21.88
2022-11-15T09:54:55.859Z,19.73
2022-11-15T09:57:44.729Z,22.92
2022-11-15T10:03:13.776Z,18.02
2022-11-15T10:05:44.073Z,20.35
2022-11-15T10:08:51.245Z,18.88
2022-11-15T10:11:40.952Z,19.85
2022-11-15T10:14:19.047Z,20.35
2022-11-15T10:17:10.478Z,21.27
2022-11-15T10:20:06.256Z,19.05
2022-11-15T10:22:41.542Z,19.30
2022-11-15T10:25:19.619Z,19.60
2022-11-15T10:28:00.167Z,24.80
2022-11-15T10:30:39.582Z,19.65
2022-11-15T10:33:25.063Z,24.67
2022-11-15T10:36:10.208Z,21.40
2022-11-15T10:38:54.295Z,27.00
2022-11-15T10:41:30.702Z,18.13
2022-11-15T10:44:32.135Z,23.27
2022-11-15T10:46:58.742Z,20.35
2022-11-15T10:49:30.259Z,19.60
2022-11-15T10:51:58.861Z,18.65
2022-11-15T10:54:48.170Z,17.98
2022-11-15T10:57:16.197Z,18.80
2022-11-15T10:59:49.097Z,22.15
2022-11-15T11:02:32.929Z,24.88
2022-11-15T11:05:00.103Z,17.40
2022-11-15T11:07:29.545Z,20.27
2022-11-15T11:10:50.374Z,19.17
2022-11-15T11:13:25.917Z,17.45
2022-11-15T11:15:57.088Z,24.08
2022-11-15T11:18:33.637Z,18.63
2022-11-15T11:21:08.400Z,18.40
2022-11-15T11:23:44.307Z,21.90
2022-11-15T11:26:43.041Z,18.00
2022-11-15T11:29:20.676Z,18.08
2022-11-15T11:31:54.421Z,18.50
2022-11-15T11:34:41.845Z,16.30
2022-11-15T11:39:52.329Z,19.42
2022-11-15T11:42:59.114Z,16.10
2022-11-15T11:45:37.678Z,14.93
2022-11-15T11:48:14.153Z,15.82
2022-11-15T11:50:42.829Z,15.50
2022-11-15T11:53:28.175Z,16.63
2022-11-15T11:56:02.552Z,17.92
2022-11-15T11:58:42.666Z,16.20
2022-11-15T12:01:18.672Z,17.55
2022-11-15T12:04:06.604Z,18.60
2022-11-15T12:06:36.742Z,15.55
2022-11-15T12:09:12.143Z,15.95
2022-11-15T12:12:08.326Z,15.10
2022-11-15T12:14:49.197Z,15.98
2022-11-15T12:17:20.575Z,14.93
2022-11-15T12:19:47.405Z,15.98
2022-11-15T12:22:19.173Z,17.42
2022-11-15T12:24:49.592Z,16.70
2022-11-15T12:27:38.434Z,19.55
2022-11-15T12:30:16.989Z,14.93
2022-11-15T12:33:01.233Z,16.83
2022-11-15T12:35:31.563Z,16.63
2022-11-15T12:37:58.322Z,16.13
2022-11-15T12:40:32.901Z,18.40
2022-11-15T12:43:06.120Z,16.20
2022-11-15T12:45:38.413Z,17.58
2022-11-15T12:48:17.314Z,14.05
2022-11-15T12:50:54.049Z,17.77
2022-11-15T12:53:23.795Z,15.25
2022-11-15T12:56:17.857Z,15.90
2022-11-15T12:59:03.313Z,18.23
2022-11-15T13:01:38.998Z,19.65
2022-11-15T13:04:27.209Z,15.50
2022-11-15T13:07:00.262Z,15.32
2022-11-15T13:09:32.850Z,18.38
2022-11-15T13:12:02.702Z,15.55
2022-11-15T13:14:46.954Z,14.10
2022-11-15T13:17:32.292Z,15.07
2022-11-15T13:20:11.484Z,13.95
2022-11-15T13:22:52.845Z,16.02
2022-11-15T13:25:28.632Z,15.82
2022-11-15T13:27:59.584Z,16.42
2022-11-15T13:30:31.173Z,19.55
2022-11-15T13:33:06.849Z,14.60
2022-11-15T13:35:37.132Z,16.38
2022-11-15T13:38:05.645Z,14.82
2022-11-15T13:40:38.797Z,16.20
2022-11-15T13:43:28.488Z,13.68
2022-11-15T13:46:16.360Z,18.77
2022-11-15T13:48:44.723Z,15.13
2022-11-15T13:51:35.357Z,16.00
2022-11-15T13:54:14.425Z,18.60
2022-11-15T13:56:46.123Z,17.63
2022-11-15T13:59:26.754Z,14.30
2022-11-15T14:01:56.217Z,14.80
2022-11-15T14:04:26.214Z,13.90
2022-11-15T14:06:57.714Z,18.70
2022-11-15T14:09:53.925Z,14.05
2022-11-15T14:12:31.302Z,14.73
2022-11-15T14:15:17.262Z,13.23
2022-11-15T14:17:49.766Z,16.20
2022-11-15T14:20:40.691Z,15.05
2022-11-15T14:23:29.522Z,14.15
2022-11-15T14:25:58.969Z,17.67
2022-11-15T14:28:25.638Z,16.65
2022-11-15T14:30:54.515Z,18.73
2022-11-15T14:33:30.737Z,13.93
2022-11-15T14:35:59.448Z,15.35
2022-11-15T14:38:26.914Z,16.00
2022-11-15T14:40:54.906Z,15.23
2022-11-15T14:43:21.701Z,20.52
2022-11-15T14:45:48.431Z,22.58
2022-11-15T14:48:15.145Z,20.67
2022-11-15T14:50:41.877Z,18.88
2022-11-15T14:53:13.711Z,17.30
2022-11-15T14:55:40.597Z,16.65
2022-11-15T14:58:11.046Z,17.88
2022-11-15T15:00:40.538Z,19.70
2022-11-15T15:03:07.476Z,21.42
2022-11-15T15:05:40.307Z,20.00
2022-11-15T15:08:08.301Z,19.00
2022-11-15T15:10:40.601Z,16.02
2022-11-15T15:13:20.514Z,17.65
2022-11-15T15:15:48.403Z,17.08
2022-11-15T15:18:16.290Z,19.55
2022-11-15T15:20:44.570Z,18.55
2022-11-15T15:23:17.349Z,18.85
2022-11-15T15:25:46.352Z,21.45
2022-11-15T15:28:13.792Z,20.65
2022-11-15T15:30:40.493Z,16.95
2022-11-15T15:33:07.209Z,19.65
2022-11-15T15:35:35.670Z,19.55
2022-11-15T15:38:04.296Z,19.48
2022-11-15T15:40:32.914Z,17.83
2022-11-15T15:42:59.911Z,19.20
2022-11-15T15:45:28.463Z,15.52
2022-11-15T15:47:55.375Z,18.80
2022-11-15T15:50:26.981Z,17.88
2022-11-15T15:52:56.015Z,15.77
2022-11-15T15:55:23.127Z,15.07
2022-11-15T15:57:50.363Z,16.35
2022-11-15T16:00:18.188Z,16.35
2022-11-15T16:02:44.933Z,19.90
2022-11-15T16:05:13.037Z,18.42
2022-11-15T16:07:40.646Z,18.83
2022-11-15T16:10:25.909Z,16.50
2022-11-15T16:12:53.976Z,20.35
2022-11-15T16:15:21.839Z,19.58
2022-11-15T16:17:56.896Z,16.58
2022-11-15T16:20:40.271Z,17.15
2022-11-15T16:23:10.212Z,15.88
2022-11-15T16:25:56.270Z,15.50
2022-11-15T16:28:24.210Z,16.98
2022-11-15T16:31:04.226Z,18.10
2022-11-15T16:33:31.510Z,16.67
2022-11-15T16:35:58.793Z,17.35
2022-11-15T16:38:25.439Z,15.43
2022-11-15T16:40:52.069Z,17.67
2022-11-15T16:43:18.780Z,16.45
2022-11-15T16:45:45.709Z,14.55
2022-11-15T16:48:23.724Z,20.23
2022-11-15T16:50:50.883Z,20.98
2022-11-15T16:53:17.772Z,26.75
2022-11-15T16:55:44.748Z,28.77
2022-11-15T16:58:11.401Z,20.98
2022-11-15T17:00:38.067Z,20.08
2022-11-15T17:03:04.827Z,20.20
2022-11-15T17:05:31.611Z,19.25
2022-11-15T17:07:58.261Z,20.30
2022-11-15T17:10:26.590Z,19.08
2022-11-15T17:12:55.267Z,18.10
2022-11-15T17:15:22.380Z,19.55
2022-11-15T17:17:53.873Z,19.75
2022-11-15T17:20:22.604Z,19.02
2022-11-15T17:22:49.284Z,19.77
2022-11-15T17:25:16.223Z,18.85
2022-11-15T17:27:42.951Z,18.05
2022-11-15T17:30:12.439Z,21.10
2022-11-15T17:32:39.122Z,23.92
2022-11-15T17:35:11.999Z,23.27
2022-11-15T17:37:41.904Z,23.25
2022-11-15T17:40:09.316Z,25.98
2022-11-15T17:42:36.045Z,26.70
2022-11-15T17:45:06.716Z,24.10
2022-11-15T17:47:36.976Z,28.25
2022-11-15T17:50:04.061Z,27.20
2022-11-15T17:52:30.732Z,25.98
2022-11-15T17:54:57.343Z,26.95
2022-11-15T17:57:24.095Z,26.92
2022-11-15T17:59:50.777Z,22.35
2022-11-15T18:02:17.539Z,24.35
2022-11-15T18:04:44.249Z,33.08
2022-11-15T18:07:12.326Z,26.00
2022-11-15T18:09:42.219Z,21.85
2022-11-15T18:12:09.986Z,28.67
2022-11-15T18:14:36.656Z,24.70
2022-11-15T18:17:03.522Z,26.45
2022-11-15T18:19:30.167Z,25.17
2022-11-15T18:21:56.957Z,23.52
2022-11-15T18:24:29.144Z,26.38
2022-11-15T18:26:56.846Z,21.13
2022-11-15T18:29:26.940Z,28.23
2022-11-15T18:31:58.689Z,25.55
2022-11-15T18:34:28.708Z,21.67
2022-11-15T18:36:55.432Z,25.60
2022-11-15T18:39:24.246Z,23.13
2022-11-15T18:41:51.805Z,23.92
2022-11-15T18:44:18.701Z,26.08
2022-11-15T18:46:45.368Z,24.65
2022-11-15T18:49:14.201Z,20.98
2022-11-15T18:51:44.041Z,25.73
2022-11-15T18:54:13.055Z,21.73
2022-11-15T18:56:40.575Z,26.27
2022-11-15T18:59:08.659Z,25.30
2022-11-15T19:01:38.190Z,25.02
2022-11-15T19:04:13.410Z,22.30
2022-11-15T19:06:42.182Z,19.80
2022-11-15T19:09:10.713Z,18.33
2022-11-15T19:11:39.585Z,25.70
2022-11-15T19:14:08.631Z,20.25
2022-11-15T19:16:38.165Z,22.35
2022-11-15T19:19:07.622Z,22.33
2022-11-15T19:21:34.728Z,20.75
2022-11-15T19:24:01.622Z,19.90
2022-11-15T19:26:29.714Z,18.17
2022-11-15T19:28:58.665Z,21.23
2022-11-15T19:31:26.811Z,21.95
2022-11-15T19:33:54.782Z,21.58
2022-11-15T19:36:28.799Z,22.90
2022-11-15T19:38:59.840Z,23.55
2022-11-15T19:41:27.033Z,21.70
2022-11-15T19:43:54.010Z,20.38
2022-11-15T19:46:23.516Z,20.63
2022-11-15T19:48:51.552Z,23.70
2022-11-15T19:51:23.775Z,21.15
2022-11-15T19:53:58.881Z,18.95
2022-11-15T19:56:25.967Z,22.55
2022-11-15T19:58:54.233Z,21.98
2022-11-15T20:01:22.945Z,20.17
2022-11-15T20:03:51.116Z,22.17
2022-11-15T20:06:19.664Z,19.77
2022-11-15T20:08:47.957Z,20.58
2022-11-15T20:11:16.083Z,22.27
2022-11-15T20:13:44.208Z,18.50
2022-11-15T20:16:19.649Z,22.77
2022-11-15T20:18:47.622Z,23.75
2022-11-15T20:21:14.795Z,21.15
2022-11-15T20:23:41.801Z,21.65
2022-11-15T20:26:09.593Z,18.92
2022-11-15T20:28:38.329Z,22.52
2022-11-15T20:31:06.183Z,24.33
2022-11-15T20:33:32.918Z,24.80
2022-11-15T20:36:04.455Z,21.80
2022-11-15T20:38:31.879Z,23.50
2022-11-15T20:41:00.333Z,21.10
2022-11-15T20:43:27.395Z,22.40
2022-11-15T20:45:54.316Z,26.23
2022-11-15T20:48:20.982Z,22.20
2022-11-15T20:50:47.961Z,25.95
2022-11-15T20:53:17.475Z,21.27
2022-11-15T20:55:52.351Z,25.52
2022-11-15T20:58:19.642Z,24.20
2022-11-15T21:00:46.739Z,25.60
2022-11-15T21:03:14.472Z,22.77
2022-11-15T21:05:43.682Z,24.10
2022-11-15T21:08:12.164Z,22.77
2022-11-15T21:11:06.666Z,25.42
2022-11-15T21:13:33.313Z,25.98
2022-11-15T21:16:00.497Z,28.10
2022-11-15T21:18:27.177Z,26.05
2022-11-15T21:20:53.863Z,24.40
2022-11-15T21:23:21.277Z,28.75
2022-11-15T21:25:51.945Z,28.38
2022-11-15T21:28:18.729Z,29.80
2022-11-15T21:30:59.868Z,30.55
2022-11-15T21:33:29.924Z,26.27
2022-11-15T21:35:57.843Z,29.35
2022-11-15T21:38:24.758Z,27.35
2022-11-15T21:40:52.501Z,27.90
2022-11-15T21:43:20.236Z,28.40
2022-11-15T21:46:01.299Z,30.60
2022-11-15T21:48:30.108Z,30.02
2022-11-15T21:51:03.390Z,36.20
2022-11-15T21:53:31.652Z,28.30
2022-11-15T21:55:59.285Z,31.33
2022-11-15T21:58:26.495Z,29.20
2022-11-15T22:01:13.615Z,31.35
2022-11-15T22:03:41.157Z,32.30
2022-11-15T22:06:09.861Z,30.58
2022-11-15T22:08:39.757Z,29.30
2022-11-15T22:11:06.720Z,31.33
2022-11-15T22:13:33.402Z,30.65
2022-11-15T22:16:00.072Z,29.10
2022-11-15T22:18:30.881Z,29.80
2022-11-15T22:21:17.337Z,30.27
2022-11-15T22:23:45.105Z,29.80
2022-11-15T22:26:19.496Z,33.22
2022-11-15T22:28:49.805Z,34.97
2022-11-15T22:31:16.459Z,29.40
2022-11-15T22:33:43.196Z,30.75
2022-11-15T22:36:12.108Z,29.58
2022-11-15T22:38:38.798Z,32.25
2022-11-15T22:41:05.712Z,29.35
2022-11-15T22:43:32.342Z,28.80
2022-11-15T22:46:00.521Z,28.67
2022-11-15T22:48:30.054Z,27.35
2022-11-15T22:50:57.308Z,27.80
2022-11-15T22:53:24.360Z,29.88
2022-11-15T22:55:56.221Z,28.05
2022-11-15T22:58:24.620Z,30.25
2022-11-15T23:00:53.200Z,26.50
2022-11-15T23:03:20.515Z,31.50
2022-11-15T23:05:47.686Z,27.98
2022-11-15T23:08:14.455Z,29.33
2022-11-15T23:10:59.757Z,30.85
2022-11-15T23:13:28.626Z,25.88
2022-11-15T23:16:21.705Z,27.50
2022-11-15T23:18:50.119Z,26.90
2022-11-15T23:21:39.509Z,25.85
2022-11-15T23:24:06.609Z,30.65
2022-11-15T23:26:33.445Z,28.92
2022-11-15T23:29:00.253Z,28.95
2022-11-15T23:31:45.468Z,31.45
2022-11-15T23:34:12.365Z,28.63
2022-11-15T23:36:40.597Z,27.70
2022-11-15T23:39:07.637Z,24.73
2022-11-15T23:41:34.496Z,28.27
2022-11-15T23:44:01.211Z,23.92
2022-11-15T23:46:28.073Z,28.92
2022-11-15T23:48:54.709Z,23.15
2022-11-15T23:51:21.407Z,24.52
2022-11-15T23:53:48.028Z,23.27
2022-11-15T23:56:16.737Z,26.80
2022-11-15T23:58:44.237Z,23.52
